createdAt,value
2022-08-07T00:02:35.339Z,49.07
2022-08-07T00:04:09.623Z,48.39
2022-08-07T00:06:45.496Z,49.07
2022-08-07T00:09:22.841Z,49.39
2022-08-07T00:11:55.494Z,49.19
2022-08-07T00:14:25.486Z,49.19
2022-08-07T00:16:52.718Z,49.23
2022-08-07T00:19:21.685Z,49.07
2022-08-07T00:21:57.053Z,48.67
2022-08-07T00:24:29.271Z,50.00
2022-08-07T00:27:06.193Z,49.25
2022-08-07T00:29:33.862Z,49.44
2022-08-07T00:32:05.762Z,49.58
2022-08-07T00:34:33.619Z,49.70
2022-08-07T00:37:02.892Z,50.54
2022-08-07T00:39:32.434Z,50.65
2022-08-07T00:42:01.974Z,50.45
2022-08-07T00:44:33.184Z,50.44
2022-08-07T00:47:00.478Z,50.65
2022-08-07T00:50:21.367Z,50.73
2022-08-07T00:52:17.729Z,51.06
2022-08-07T00:54:47.282Z,50.96
2022-08-07T00:57:22.278Z,51.14
2022-08-07T00:59:49.495Z,50.60
2022-08-07T01:02:28.785Z,51.44
2022-08-07T01:04:58.637Z,50.83
2022-08-07T01:07:27.604Z,50.89
2022-08-07T01:10:06.322Z,51.16
2022-08-07T01:12:40.096Z,51.36
2022-08-07T01:15:22.507Z,51.69
2022-08-07T01:18:03.012Z,51.71
2022-08-07T01:20:43.078Z,52.38
2022-08-07T01:23:12.984Z,51.85
2022-08-07T01:25:55.751Z,52.31
2022-08-07T01:28:23.746Z,52.04
2022-08-07T01:30:52.166Z,52.07
2022-08-07T01:33:18.842Z,52.03
2022-08-07T01:35:53.594Z,52.52
2022-08-07T01:38:24.793Z,52.19
2022-08-07T01:40:55.696Z,52.76
2022-08-07T01:43:23.928Z,52.60
2022-08-07T01:45:54.586Z,52.84
2022-08-07T01:48:30.597Z,53.15
2022-08-07T01:51:24.351Z,52.69
2022-08-07T01:54:08.601Z,53.07
2022-08-07T01:56:53.258Z,53.17
2022-08-07T01:59:34.002Z,52.90
2022-08-07T02:02:10.469Z,53.15
2022-08-07T02:04:55.651Z,53.06
2022-08-07T02:07:44.753Z,52.79
2022-08-07T02:10:14.501Z,53.31
2022-08-07T02:12:46.413Z,53.24
2022-08-07T02:15:22.615Z,52.61
2022-08-07T02:17:51.905Z,53.11
2022-08-07T02:20:23.900Z,53.84
2022-08-07T02:22:55.331Z,53.36
2022-08-07T02:26:10.142Z,54.13
2022-08-07T02:28:12.941Z,54.24
2022-08-07T02:30:40.799Z,54.17
2022-08-07T02:33:10.423Z,54.21
2022-08-07T02:36:29.364Z,54.01
2022-08-07T02:38:31.943Z,54.68
2022-08-07T02:41:00.704Z,55.18
2022-08-07T02:43:28.752Z,55.19
2022-08-07T02:46:01.650Z,55.77
2022-08-07T02:48:29.712Z,55.56
2022-08-07T02:50:59.594Z,55.43
2022-08-07T02:53:38.309Z,56.10
2022-08-07T02:56:17.597Z,56.36
2022-08-07T02:58:54.249Z,55.85
2022-08-07T03:01:35.592Z,56.48
2022-08-07T03:04:07.814Z,56.27
2022-08-07T03:06:41.991Z,56.53
2022-08-07T03:09:11.843Z,56.85
2022-08-07T03:11:52.489Z,56.27
2022-08-07T03:14:26.105Z,56.58
2022-08-07T03:16:55.573Z,57.27
2022-08-07T03:19:22.918Z,57.46
2022-08-07T03:21:51.227Z,56.85
2022-08-07T03:24:27.214Z,57.35
2022-08-07T03:26:58.066Z,57.42
2022-08-07T03:29:30.525Z,57.69
2022-08-07T03:31:58.038Z,58.03
2022-08-07T03:34:27.942Z,57.51
2022-08-07T03:36:57.317Z,57.34
2022-08-07T03:39:46.007Z,57.63
2022-08-07T03:42:14.192Z,57.55
2022-08-07T03:44:41.467Z,57.82
2022-08-07T03:47:10.824Z,58.43
2022-08-07T03:49:39.441Z,58.31
2022-08-07T03:52:08.219Z,57.88
2022-08-07T03:54:55.072Z,58.44
2022-08-07T03:58:32.706Z,58.20
2022-08-07T04:00:14.328Z,58.38
2022-08-07T04:02:47.496Z,58.92
2022-08-07T04:05:19.780Z,58.98
2022-08-07T04:07:51.683Z,58.13
2022-08-07T04:10:19.984Z,58.44
2022-08-07T04:12:48.879Z,58.76
2022-08-07T04:15:18.200Z,58.86
2022-08-07T04:18:56.670Z,59.44
2022-08-07T04:20:32.170Z,58.64
2022-08-07T04:23:06.424Z,58.16
2022-08-07T04:25:38.982Z,59.16
2022-08-07T04:28:10.384Z,58.81
2022-08-07T04:30:55.641Z,59.14
2022-08-07T04:33:24.774Z,59.09
2022-08-07T04:35:53.976Z,59.38
2022-08-07T04:38:21.888Z,59.43
2022-08-07T04:40:52.106Z,59.93
2022-08-07T04:44:10.532Z,60.16
2022-08-07T04:46:59.368Z,60.48
2022-08-07T04:49:37.781Z,59.76
2022-08-07T04:52:10.998Z,59.19
2022-08-07T04:54:54.980Z,59.19
2022-08-07T04:58:32.100Z,60.00
2022-08-07T05:00:30.796Z,60.61
2022-08-07T05:03:17.160Z,60.39
2022-08-07T05:06:19.965Z,60.20
2022-08-07T05:09:08.975Z,59.90
2022-08-07T05:11:58.730Z,60.98
2022-08-07T05:14:54.051Z,60.37
2022-08-07T05:18:00.600Z,60.61
2022-08-07T05:20:16.311Z,60.91
2022-08-07T05:22:46.115Z,60.45
2022-08-07T05:25:25.866Z,60.47
2022-08-07T05:28:21.260Z,60.19
2022-08-07T05:30:52.161Z,60.41
2022-08-07T05:33:21.360Z,60.64
2022-08-07T05:35:50.725Z,60.63
2022-08-07T05:39:00.704Z,60.93
2022-08-07T05:41:14.355Z,60.19
2022-08-07T05:44:01.554Z,59.49
2022-08-07T05:46:36.290Z,58.85
2022-08-07T05:49:12.040Z,57.50
2022-08-07T05:51:42.307Z,57.27
2022-08-07T05:54:19.510Z,56.74
2022-08-07T05:56:58.023Z,56.14
2022-08-07T05:59:27.586Z,55.06
2022-08-07T06:01:57.278Z,55.05
2022-08-07T06:04:26.305Z,54.63
2022-08-07T06:07:03.803Z,54.50
2022-08-07T06:10:04.273Z,53.72
2022-08-07T06:12:21.038Z,53.67
2022-08-07T06:14:55.076Z,53.88
2022-08-07T06:17:37.976Z,54.01
2022-08-07T06:20:12.328Z,53.88
2022-08-07T06:23:09.357Z,54.18
2022-08-07T06:25:54.051Z,54.04
2022-08-07T06:28:27.923Z,53.89
2022-08-07T06:30:56.259Z,54.42
2022-08-07T06:33:26.317Z,53.53
2022-08-07T06:36:12.295Z,53.72
2022-08-07T06:38:58.835Z,52.75
2022-08-07T06:41:59.235Z,53.61
2022-08-07T06:44:31.140Z,52.88
2022-08-07T06:47:10.662Z,52.93
2022-08-07T06:49:51.218Z,52.47
2022-08-07T06:52:31.272Z,52.53
2022-08-07T06:55:33.997Z,52.49
2022-08-07T06:57:57.146Z,52.49
2022-08-07T07:00:24.715Z,51.80
2022-08-07T07:02:57.437Z,51.52
2022-08-07T07:06:03.947Z,51.19
2022-08-07T07:08:18.542Z,50.91
2022-08-07T07:10:56.730Z,50.38
2022-08-07T07:13:41.630Z,50.19
2022-08-07T07:16:30.499Z,49.70
2022-08-07T07:19:34.131Z,49.53
2022-08-07T07:22:12.114Z,48.78
2022-08-07T07:24:43.161Z,49.03
2022-08-07T07:27:35.684Z,48.56
2022-08-07T07:30:32.355Z,47.55
2022-08-07T07:33:06.127Z,47.65
2022-08-07T07:35:43.757Z,46.66
2022-08-07T07:38:23.594Z,46.89
2022-08-07T07:40:52.194Z,46.69
2022-08-07T07:43:27.525Z,46.34
2022-08-07T07:46:37.884Z,45.86
2022-08-07T07:48:59.922Z,45.52
2022-08-07T07:51:58.468Z,46.00
2022-08-07T07:54:25.032Z,45.58
2022-08-07T07:56:55.369Z,45.73
2022-08-07T07:59:52.305Z,45.55
2022-08-07T08:02:34.180Z,45.50
2022-08-07T08:05:05.189Z,45.20
2022-08-07T08:07:35.693Z,44.73
2022-08-07T08:10:14.868Z,44.34
2022-08-07T08:13:00.602Z,43.78
2022-08-07T08:15:57.919Z,43.46
2022-08-07T08:18:28.138Z,42.63
2022-08-07T08:20:55.777Z,42.13
2022-08-07T08:23:42.609Z,42.32
2022-08-07T08:26:31.012Z,41.38
2022-08-07T08:29:01.185Z,41.22
2022-08-07T08:32:17.030Z,40.92
2022-08-07T08:34:27.107Z,40.25
2022-08-07T08:36:58.046Z,40.03
2022-08-07T08:39:39.581Z,40.32
2022-08-07T08:42:31.893Z,40.04
2022-08-07T08:45:13.188Z,39.50
2022-08-07T08:47:52.773Z,39.10
2022-08-07T08:50:34.918Z,38.40
2022-08-07T08:53:19.238Z,38.33
2022-08-07T08:56:02.445Z,37.02
2022-08-07T08:58:57.202Z,37.32
2022-08-07T09:01:43.808Z,36.57
2022-08-07T09:04:31.605Z,36.01
2022-08-07T09:07:06.155Z,36.27
2022-08-07T09:10:02.514Z,36.08
2022-08-07T09:12:54.339Z,35.29
2022-08-07T09:16:22.697Z,34.95
2022-08-07T09:18:53.369Z,34.63
2022-08-07T09:21:33.784Z,32.63
2022-08-07T09:24:55.333Z,32.48
2022-08-07T09:27:30.343Z,32.12
2022-08-07T09:30:08.794Z,31.92
2022-08-07T09:33:05.236Z,31.84
2022-08-07T09:36:00.951Z,29.85
2022-08-07T09:39:27.394Z,29.97
2022-08-07T09:42:17.005Z,29.19
2022-08-07T09:47:20.215Z,29.84
2022-08-07T09:48:07.537Z,29.22
2022-08-07T09:50:53.142Z,28.33
2022-08-07T09:53:22.569Z,28.25
2022-08-07T09:56:03.674Z,27.77
2022-08-07T09:58:53.151Z,28.18
2022-08-07T10:01:51.222Z,27.25
2022-08-07T10:04:19.916Z,26.82
2022-08-07T10:07:39.658Z,25.83
2022-08-07T10:10:21.518Z,25.83
2022-08-07T10:13:54.834Z,25.05
2022-08-07T10:16:49.028Z,24.80
2022-08-07T10:19:40.122Z,23.84
2022-08-07T10:22:50.862Z,23.66
2022-08-07T10:25:55.026Z,23.18
2022-08-07T10:28:30.607Z,23.09
2022-08-07T10:31:06.085Z,22.80
2022-08-07T10:34:14.043Z,22.88
2022-08-07T10:36:59.093Z,22.93
2022-08-07T10:40:05.276Z,22.32
2022-08-07T10:42:40.921Z,21.76
2022-08-07T10:45:57.667Z,21.69
2022-08-07T10:48:52.731Z,22.53
2022-08-07T10:52:01.855Z,21.90
2022-08-07T10:55:01.537Z,21.21
2022-08-07T10:57:51.547Z,21.10
2022-08-07T11:00:39.484Z,21.45
2022-08-07T11:03:17.142Z,22.16
2022-08-07T11:06:02.899Z,20.68
2022-08-07T11:08:51.773Z,20.80
2022-08-07T11:11:25.722Z,20.81
2022-08-07T11:14:45.309Z,20.79
2022-08-07T11:17:02.101Z,20.65
2022-08-07T11:19:53.111Z,20.40
2022-08-07T11:22:43.972Z,19.57
2022-08-07T11:25:25.837Z,18.92
2022-08-07T11:28:04.053Z,19.56
2022-08-07T11:31:11.619Z,19.56
2022-08-07T11:34:17.253Z,19.86
2022-08-07T11:36:52.379Z,19.34
2022-08-07T11:40:00.415Z,19.16
2022-08-07T11:43:15.368Z,18.80
2022-08-07T11:46:19.208Z,19.48
2022-08-07T11:49:51.599Z,19.30
2022-08-07T11:52:37.693Z,18.45
2022-08-07T11:56:25.082Z,19.63
2022-08-07T11:58:38.844Z,19.02
2022-08-07T12:01:11.431Z,19.50
2022-08-07T12:04:06.751Z,19.34
2022-08-07T12:06:50.906Z,19.32
2022-08-07T12:09:46.208Z,19.31
2022-08-07T12:13:11.632Z,19.85
2022-08-07T12:16:07.075Z,19.85
2022-08-07T12:18:51.156Z,19.56
2022-08-07T12:21:55.869Z,19.98
2022-08-07T12:24:37.854Z,19.81
2022-08-07T12:27:15.918Z,20.23
2022-08-07T12:29:53.731Z,20.04
2022-08-07T12:32:34.774Z,19.19
2022-08-07T12:35:08.371Z,19.54
2022-08-07T12:38:10.759Z,19.86
2022-08-07T12:40:47.375Z,18.90
2022-08-07T12:44:02.573Z,19.54
2022-08-07T12:46:15.901Z,19.62
2022-08-07T12:49:39.927Z,19.21
2022-08-07T12:52:14.429Z,19.70
2022-08-07T12:54:54.607Z,20.74
2022-08-07T12:57:59.159Z,20.69
2022-08-07T13:00:31.037Z,20.26
2022-08-07T13:03:26.874Z,20.83
2022-08-07T13:06:27.617Z,19.74
2022-08-07T13:10:20.115Z,20.02
2022-08-07T13:12:36.398Z,19.82
2022-08-07T13:15:34.570Z,20.37
2022-08-07T13:18:28.340Z,20.76
2022-08-07T13:21:51.237Z,21.06
2022-08-07T13:24:33.160Z,20.67
2022-08-07T13:27:13.157Z,21.49
2022-08-07T13:30:05.176Z,20.75
2022-08-07T13:32:55.515Z,21.18
2022-08-07T13:36:00.949Z,21.18
2022-08-07T13:38:24.681Z,20.85
2022-08-07T13:41:20.696Z,20.72
2022-08-07T13:43:52.643Z,20.91
2022-08-07T13:46:32.759Z,20.74
2022-08-07T13:49:01.678Z,20.46
2022-08-07T13:52:22.943Z,20.87
2022-08-07T13:54:23.790Z,20.68
2022-08-07T13:56:59.470Z,20.15
2022-08-07T13:59:33.257Z,19.64
2022-08-07T14:02:10.362Z,20.10
2022-08-07T14:05:05.527Z,19.62
2022-08-07T14:08:00.960Z,20.49
2022-08-07T14:10:42.290Z,19.91
2022-08-07T14:13:18.018Z,19.49
2022-08-07T14:15:53.220Z,19.78
2022-08-07T14:18:31.369Z,19.27
2022-08-07T14:21:08.441Z,19.46
2022-08-07T14:24:00.911Z,19.35
2022-08-07T14:26:56.384Z,19.10
2022-08-07T14:30:09.807Z,19.21
2022-08-07T14:32:16.103Z,19.96
2022-08-07T14:34:48.193Z,19.37
2022-08-07T14:37:19.479Z,19.48
2022-08-07T14:40:17.257Z,18.94
2022-08-07T14:42:59.932Z,18.71
2022-08-07T14:45:51.399Z,19.13
2022-08-07T14:48:27.275Z,18.84
2022-08-07T14:50:56.743Z,18.66
2022-08-07T14:54:03.758Z,18.48
2022-08-07T14:56:15.706Z,18.76
2022-08-07T14:59:02.064Z,19.02
2022-08-07T15:01:42.646Z,18.86
2022-08-07T15:04:11.660Z,18.96
2022-08-07T15:06:40.642Z,18.36
2022-08-07T15:09:57.608Z,18.30
2022-08-07T15:12:25.496Z,18.92
2022-08-07T15:15:08.237Z,18.73
2022-08-07T15:17:54.649Z,18.43
2022-08-07T15:23:22.385Z,18.24
2022-08-07T15:30:04.546Z,18.36
2022-08-07T15:31:57.671Z,18.34
2022-08-07T15:34:33.565Z,18.49
2022-08-07T15:37:07.090Z,18.50
2022-08-07T15:42:44.581Z,18.65
2022-08-07T15:45:22.324Z,18.61
2022-08-07T15:48:00.876Z,18.80
2022-08-07T15:53:52.137Z,19.12
2022-08-07T15:56:24.628Z,18.99
2022-08-07T15:58:58.834Z,19.31
2022-08-07T16:01:39.115Z,19.26
2022-08-07T16:04:15.218Z,18.75
2022-08-07T16:06:51.668Z,18.94
2022-08-07T16:09:40.934Z,18.84
2022-08-07T16:12:25.133Z,18.95
2022-08-07T16:15:54.619Z,18.04
2022-08-07T16:18:49.952Z,18.11
2022-08-07T16:21:53.481Z,19.43
2022-08-07T16:24:34.232Z,19.14
2022-08-07T16:27:40.663Z,19.42
2022-08-07T16:30:30.391Z,19.29
2022-08-07T16:34:01.920Z,18.76
2022-08-07T16:36:06.743Z,18.82
2022-08-07T16:39:06.079Z,19.14
2022-08-07T16:41:55.374Z,18.97
2022-08-07T16:44:57.217Z,19.18
2022-08-07T16:47:57.077Z,19.06
2022-08-07T16:51:07.225Z,19.68
2022-08-07T16:54:02.290Z,19.58
2022-08-07T16:56:48.992Z,19.91
2022-08-07T16:59:19.850Z,20.81
2022-08-07T17:02:51.357Z,20.49
2022-08-07T17:06:19.850Z,20.63
2022-08-07T17:09:09.233Z,20.89
2022-08-07T17:12:01.528Z,21.16
2022-08-07T17:14:41.872Z,21.63
2022-08-07T17:17:44.261Z,22.27
2022-08-07T17:20:37.478Z,22.34
2022-08-07T17:23:22.520Z,22.79
2022-08-07T17:26:04.363Z,23.09
2022-08-07T17:28:38.242Z,23.37
2022-08-07T17:31:44.166Z,23.85
2022-08-07T17:34:40.995Z,23.82
2022-08-07T17:38:06.529Z,23.67
2022-08-07T17:40:30.277Z,23.92
2022-08-07T17:43:17.848Z,24.78
2022-08-07T17:45:55.547Z,24.54
2022-08-07T17:48:33.405Z,24.68
2022-08-07T17:51:11.594Z,25.37
2022-08-07T17:54:00.165Z,25.79
2022-08-07T17:56:36.310Z,25.83
2022-08-07T17:59:35.412Z,25.66
2022-08-07T18:02:38.724Z,26.37
2022-08-07T18:05:21.299Z,25.72
2022-08-07T18:08:24.477Z,25.86
2022-08-07T18:12:08.250Z,25.78
2022-08-07T18:14:23.763Z,25.51
2022-08-07T18:17:07.424Z,26.54
2022-08-07T18:21:06.660Z,26.37
2022-08-07T18:23:05.343Z,26.45
2022-08-07T18:26:01.186Z,26.63
2022-08-07T18:28:57.941Z,26.24
2022-08-07T18:31:38.906Z,26.59
2022-08-07T18:34:36.991Z,26.25
2022-08-07T18:38:57.674Z,26.29
2022-08-07T18:40:39.846Z,25.93
2022-08-07T18:43:36.705Z,26.05
2022-08-07T18:46:25.764Z,25.96
2022-08-07T18:50:32.866Z,26.70
2022-08-07T18:52:53.820Z,26.49
2022-08-07T18:55:42.909Z,26.34
2022-08-07T18:58:33.974Z,26.54
2022-08-07T19:02:17.324Z,26.66
2022-08-07T19:04:54.747Z,26.64
2022-08-07T19:07:34.990Z,26.99
2022-08-07T19:10:14.837Z,26.77
2022-08-07T19:13:10.053Z,27.00
2022-08-07T19:16:04.329Z,27.06
2022-08-07T19:19:14.310Z,27.37
2022-08-07T19:21:56.862Z,27.42
2022-08-07T19:24:43.226Z,27.73
2022-08-07T19:28:56.697Z,27.79
2022-08-07T19:31:05.190Z,28.21
2022-08-07T19:32:59.752Z,28.28
2022-08-07T19:35:28.333Z,28.28
2022-08-07T19:38:04.339Z,28.22
2022-08-07T19:40:50.515Z,28.40
2022-08-07T19:43:50.195Z,28.60
2022-08-07T19:46:11.700Z,28.95
2022-08-07T19:48:53.729Z,29.12
2022-08-07T19:51:50.874Z,29.41
2022-08-07T19:54:31.938Z,29.49
2022-08-07T19:57:56.856Z,29.94
2022-08-07T20:00:10.017Z,29.89
2022-08-07T20:02:52.035Z,30.28
2022-08-07T20:05:28.175Z,30.75
2022-08-07T20:08:02.125Z,30.48
2022-08-07T20:10:54.483Z,30.59
2022-08-07T20:13:37.378Z,31.55
2022-08-07T20:16:15.970Z,31.49
2022-08-07T20:19:00.067Z,31.34
2022-08-07T20:21:41.679Z,31.72
2022-08-07T20:24:35.753Z,31.91
2022-08-07T20:27:11.668Z,32.07
2022-08-07T20:29:56.743Z,32.00
2022-08-07T20:32:39.945Z,32.54
2022-08-07T20:35:10.731Z,32.58
2022-08-07T20:37:55.205Z,32.93
2022-08-07T20:40:32.165Z,32.75
2022-08-07T20:43:02.208Z,33.00
2022-08-07T20:45:32.679Z,32.99
2022-08-07T20:48:25.803Z,33.51
2022-08-07T20:50:59.606Z,33.21
2022-08-07T20:54:04.543Z,33.89
2022-08-07T20:56:16.578Z,34.09
2022-08-07T20:58:53.891Z,33.69
2022-08-07T21:01:22.252Z,34.32
2022-08-07T21:04:13.377Z,34.65
2022-08-07T21:06:53.237Z,34.94
2022-08-07T21:09:24.475Z,34.93
2022-08-07T21:11:55.826Z,35.72
2022-08-07T21:14:48.423Z,36.10
2022-08-07T21:18:02.950Z,36.66
2022-08-07T21:20:18.937Z,36.69
2022-08-07T21:22:57.355Z,36.88
2022-08-07T21:25:39.071Z,37.20
2022-08-07T21:28:50.071Z,37.58
2022-08-07T21:31:49.613Z,37.85
2022-08-07T21:34:46.072Z,37.93
2022-08-07T21:37:58.864Z,38.48
2022-08-07T21:40:38.364Z,38.35
2022-08-07T21:43:13.873Z,39.09
2022-08-07T21:46:10.269Z,39.03
2022-08-07T21:48:48.143Z,39.42
2022-08-07T21:51:26.668Z,38.86
2022-08-07T21:54:18.735Z,39.48
2022-08-07T21:57:03.481Z,40.34
2022-08-07T22:00:04.073Z,39.70
2022-08-07T22:02:48.219Z,40.41
2022-08-07T22:05:21.810Z,40.30
2022-08-07T22:08:10.513Z,40.43
2022-08-07T22:10:42.401Z,40.91
2022-08-07T22:13:14.396Z,41.04
2022-08-07T22:16:38.482Z,41.76
2022-08-07T22:19:18.161Z,42.07
2022-08-07T22:22:01.695Z,41.81
2022-08-07T22:24:45.772Z,42.42
2022-08-07T22:27:56.293Z,43.01
2022-08-07T22:30:20.129Z,42.81
2022-08-07T22:32:58.069Z,42.96
2022-08-07T22:35:39.597Z,42.99
2022-08-07T22:38:25.736Z,43.31
2022-08-07T22:41:20.267Z,43.18
2022-08-07T22:43:56.026Z,43.41
2022-08-07T22:47:06.529Z,43.80
2022-08-07T22:50:07.041Z,43.21
2022-08-07T22:52:59.438Z,43.41
2022-08-07T22:55:30.134Z,43.75
2022-08-07T22:58:34.032Z,43.11
2022-08-07T23:01:51.959Z,42.28
2022-08-07T23:04:58.563Z,42.43
2022-08-07T23:08:22.613Z,42.00
2022-08-07T23:11:13.562Z,41.98
2022-08-07T23:14:19.820Z,41.28
2022-08-07T23:16:58.488Z,41.82
2022-08-07T23:20:02.804Z,41.11
2022-08-07T23:22:40.100Z,41.73
2022-08-07T23:25:28.573Z,42.03
2022-08-07T23:28:21.189Z,42.00
2022-08-07T23:31:18.597Z,42.14
2022-08-07T23:34:45.094Z,42.08
2022-08-07T23:37:30.185Z,41.85
2022-08-07T23:40:18.159Z,42.47
2022-08-07T23:43:16.875Z,42.34
2022-08-07T23:46:10.830Z,42.64
2022-08-07T23:48:56.155Z,42.70
2022-08-07T23:53:00.668Z,42.65
2022-08-07T23:54:45.932Z,42.72
2022-08-07T23:57:41.245Z,43.09
